Time;durP1;ratioP1;P1;durP2;ratioP2;P2;SDS_P1;SDS_P2;PMS_P1;PMS_P2;Temp;Humidity;BMP_temperature;BMP_pressure;BME280_temperature;BME280_humidity;BME280_pressure;Samples;Min_cycle;Max_cycle;Signal;HPM_P1;HPM_P2
2022/06/08 00:02:19;;;;;;;20.55;7.70;;;21.90;65.70;;;;;;5060791;28;20075;-67
2022/06/08 00:04:45;;;;;;;22.00;6.93;;;21.90;65.70;;;;;;5067413;28;20024;-67
2022/06/08 00:07:13;;;;;;;20.10;6.88;;;21.90;65.70;;;;;;5064624;28;20031;-67
2022/06/08 00:09:40;;;;;;;18.92;6.78;;;21.90;65.70;;;;;;5067035;28;20037;-67
2022/06/08 00:12:06;;;;;;;20.08;6.63;;;21.90;65.70;;;;;;5064199;28;20025;-67
2022/06/08 00:14:32;;;;;;;19.75;7.15;;;21.90;65.70;;;;;;5063755;28;20041;-67
2022/06/08 00:16:57;;;;;;;16.92;6.60;;;21.90;65.70;;;;;;5065588;28;20048;-67
2022/06/08 00:19:23;;;;;;;18.80;6.57;;;21.90;65.70;;;;;;5067879;28;20070;-67
2022/06/08 00:21:49;;;;;;;19.58;6.55;;;21.90;65.70;;;;;;5064281;28;20017;-66
2022/06/08 00:24:14;;;;;;;17.55;6.20;;;21.90;65.70;;;;;;5064416;28;20029;-67
2022/06/08 00:26:40;;;;;;;18.25;6.65;;;21.90;65.70;;;;;;5066966;28;20035;-67
2022/06/08 00:29:06;;;;;;;17.35;6.75;;;21.80;65.80;;;;;;5063876;28;20101;-66
2022/06/08 00:31:31;;;;;;;20.08;6.47;;;21.80;65.70;;;;;;5068434;28;20514;-67
2022/06/08 00:33:57;;;;;;;20.00;6.55;;;21.80;65.60;;;;;;5064099;28;20029;-67
2022/06/08 00:36:23;;;;;;;17.33;5.72;;;21.80;65.60;;;;;;5065794;28;20029;-67
2022/06/08 00:38:49;;;;;;;18.20;6.22;;;21.80;65.70;;;;;;5064020;28;20028;-67
2022/06/08 00:41:36;;;;;;;21.77;7.07;;;21.80;66.70;;;;;;5064544;28;20104;-67
2022/06/08 00:44:02;;;;;;;19.52;6.53;;;21.80;65.70;;;;;;5058733;28;20524;-67
2022/06/08 00:46:28;;;;;;;17.67;6.13;;;21.80;65.70;;;;;;5067866;28;20033;-67
2022/06/08 00:48:56;;;;;;;18.83;6.50;;;21.80;65.70;;;;;;5060866;28;20060;-67
2022/06/08 00:51:22;;;;;;;17.50;6.53;;;21.80;65.70;;;;;;5063381;28;20025;-68
2022/06/08 00:54:02;;;;;;;15.55;6.47;;;21.80;65.60;;;;;;5065843;28;20013;-67
2022/06/08 00:56:30;;;;;;;16.98;6.13;;;21.80;65.60;;;;;;5064161;28;20028;-67
2022/06/08 00:58:56;;;;;;;17.40;6.80;;;21.80;65.60;;;;;;5065662;28;20039;-67
2022/06/08 01:01:22;;;;;;;15.88;5.70;;;21.80;65.60;;;;;;5067327;28;20028;-67
2022/06/08 01:03:48;;;;;;;16.00;5.68;;;21.70;65.60;;;;;;5062088;28;20033;-67
2022/06/08 01:06:16;;;;;;;18.35;6.38;;;21.80;65.70;;;;;;5060880;28;20020;-67
2022/06/08 01:08:47;;;;;;;16.23;5.85;;;21.80;65.70;;;;;;5066496;28;20119;-67
2022/06/08 01:11:16;;;;;;;17.17;5.90;;;21.80;65.70;;;;;;5064940;28;20111;-67
2022/06/08 01:13:43;;;;;;;15.15;5.82;;;21.80;65.60;;;;;;5064765;28;20028;-67
2022/06/08 01:16:09;;;;;;;15.88;5.68;;;21.70;65.60;;;;;;5064854;28;20040;-67
2022/06/08 01:18:35;;;;;;;15.88;5.63;;;21.70;65.60;;;;;;5066555;28;20443;-67
2022/06/08 01:21:21;;;;;;;20.10;6.00;;;21.70;65.60;;;;;;5065611;28;20032;-67
2022/06/08 01:23:52;;;;;;;17.20;6.28;;;21.70;65.60;;;;;;5065433;28;20103;-67
2022/06/08 01:26:30;;;;;;;16.45;6.00;;;21.70;65.60;;;;;;5063122;28;20031;-67
2022/06/08 01:29:16;;;;;;;16.10;5.93;;;21.70;65.60;;;;;;5063632;28;20012;-67
2022/06/08 01:32:16;;;;;;;16.73;5.28;;;21.70;65.60;;;;;;5061398;28;20021;-67
2022/06/08 01:34:53;;;;;;;17.98;6.47;;;21.70;65.60;;;;;;5064474;28;20023;-67
2022/06/08 01:37:26;;;;;;;15.18;5.85;;;21.70;65.60;;;;;;5081920;28;20055;-67
2022/06/08 01:40:34;;;;;;;14.68;5.40;;;21.70;65.60;;;;;;5064946;28;20029;-67
2022/06/08 01:43:21;;;;;;;18.90;6.03;;;21.70;65.60;;;;;;5064399;28;20036;-67
2022/06/08 01:46:19;;;;;;;16.58;5.60;;;21.70;65.60;;;;;;5060760;28;20024;-67
2022/06/08 01:48:57;;;;;;;14.68;5.88;;;21.70;65.50;;;;;;5064399;28;20052;-67
2022/06/08 01:51:22;;;;;;;14.13;5.15;;;21.60;65.50;;;;;;5063360;28;20059;-67
2022/06/08 01:54:31;;;;;;;15.10;5.40;;;21.70;65.50;;;;;;5061151;28;20029;-67
2022/06/08 01:57:15;;;;;;;14.38;5.18;;;21.70;65.60;;;;;;5041722;28;20064;-67
2022/06/08 01:59:55;;;;;;;14.65;5.05;;;21.60;65.50;;;;;;5040722;28;20172;-67
2022/06/08 02:02:34;;;;;;;16.58;6.03;;;21.60;65.50;;;;;;4994718;28;20478;-67
2022/06/08 02:05:03;;;;;;;16.38;5.68;;;21.60;65.50;;;;;;5012441;28;20029;-67
2022/06/08 02:08:21;;;;;;;15.55;5.43;;;21.60;65.50;;;;;;5029490;28;20045;-67
2022/06/08 02:10:56;;;;;;;16.92;5.32;;;21.60;65.40;;;;;;4985367;28;20543;-67
2022/06/08 02:13:28;;;;;;;;;;;21.60;65.50;;;;;;4984536;28;20039;-67
2022/06/08 02:16:01;;;;;;;16.08;5.40;;;21.60;65.40;;;;;;4967274;28;19910;-67
2022/06/08 02:18:37;;;;;;;14.15;5.22;;;21.60;65.40;;;;;;4951036;28;20189;-66
2022/06/08 02:21:09;;;;;;;14.23;5.38;;;21.60;65.40;;;;;;4953453;28;20030;-67
2022/06/08 02:23:41;;;;;;;14.52;5.10;;;21.60;65.40;;;;;;4986878;28;20046;-67
2022/06/08 02:26:31;;;;;;;17.17;5.47;;;21.60;65.40;;;;;;4984247;28;20049;-67
2022/06/08 02:29:02;;;;;;;15.07;5.15;;;21.60;65.40;;;;;;4977723;28;20038;-67
2022/06/08 02:31:35;;;;;;;14.18;5.13;;;21.60;65.40;;;;;;4965466;28;20181;-67
2022/06/08 02:34:28;;;;;;;14.63;5.28;;;21.60;65.40;;;;;;4951844;28;20419;-67
2022/06/08 02:37:19;;;;;;;14.13;4.95;;;21.60;65.40;;;;;;4984212;28;20479;-68
2022/06/08 02:40:04;;;;;;;14.95;4.88;;;21.50;65.40;;;;;;4983569;28;20034;-67
2022/06/08 02:42:41;;;;;;;16.50;5.85;;;21.60;65.40;;;;;;4983907;28;20030;-67
2022/06/08 02:45:17;;;;;;;15.10;5.47;;;21.50;65.30;;;;;;4992244;28;20027;-66
2022/06/08 02:47:44;;;;;;;13.35;5.03;;;21.50;65.30;;;;;;5061640;28;20059;-67
2022/06/08 02:50:15;;;;;;;15.98;5.40;;;21.50;65.30;;;;;;5062730;28;20567;-67
2022/06/08 02:52:43;;;;;;;15.18;5.22;;;21.50;65.30;;;;;;5062141;28;20037;-67
2022/06/08 02:55:41;;;;;;;14.10;5.00;;;21.50;65.40;;;;;;5063743;28;20033;-66
2022/06/08 02:58:28;;;;;;;15.27;4.88;;;21.50;65.40;;;;;;5064369;28;20665;-67
2022/06/08 03:00:58;;;;;;;12.20;5.00;;;21.50;65.40;;;;;;5063319;28;20504;-67
2022/06/08 03:03:46;;;;;;;12.88;4.97;;;21.50;65.30;;;;;;5064626;28;20117;-67
2022/06/08 03:06:22;;;;;;;15.13;5.07;;;21.50;65.30;;;;;;5045769;28;20035;-67
2022/06/08 03:08:53;;;;;;;13.32;4.68;;;21.50;65.30;;;;;;5063651;28;20039;-67
2022/06/08 03:11:19;;;;;;;15.90;5.57;;;21.50;65.30;;;;;;5063569;28;20131;-67
2022/06/08 03:14:02;;;;;;;13.38;5.18;;;21.50;65.30;;;;;;5062434;28;20051;-68
2022/06/08 03:16:30;;;;;;;13.57;4.82;;;21.50;65.30;;;;;;5065209;28;20416;-67
2022/06/08 03:18:56;;;;;;;13.23;5.28;;;21.50;65.40;;;;;;5061800;28;20747;-67
2022/06/08 03:21:21;;;;;;;15.07;5.18;;;21.50;65.40;;;;;;5062312;28;20026;-67
2022/06/08 03:23:49;;;;;;;14.35;5.03;;;21.40;65.20;;;;;;5060486;28;20020;-67
2022/06/08 03:26:16;;;;;;;11.73;4.60;;;21.40;65.30;;;;;;5063282;28;20025;-67
2022/06/08 03:28:41;;;;;;;13.20;4.65;;;21.40;65.30;;;;;;5064709;28;20712;-68
2022/06/08 03:31:07;;;;;;;14.23;4.70;;;21.40;65.30;;;;;;5066177;28;20032;-67
2022/06/08 03:33:33;;;;;;;13.35;4.90;;;21.40;66.40;;;;;;5062714;28;20078;-67
2022/06/08 03:35:59;;;;;;;13.38;4.68;;;21.40;65.30;;;;;;5058365;28;20104;-67
2022/06/08 03:38:26;;;;;;;12.60;4.57;;;21.40;65.30;;;;;;5066394;28;20119;-69
2022/06/08 03:40:52;;;;;;;12.32;4.40;;;21.40;65.30;;;;;;5063637;28;20096;-67
2022/06/08 03:43:17;;;;;;;13.52;4.72;;;21.40;65.50;;;;;;5069117;28;20139;-67
2022/06/08 03:45:47;;;;;;;14.07;4.65;;;21.40;65.40;;;;;;5068705;28;20047;-67
2022/06/08 03:48:13;;;;;;;12.68;4.10;;;21.40;65.40;;;;;;5064461;28;20028;-67
2022/06/08 03:50:41;;;;;;;13.60;4.75;;;21.40;65.40;;;;;;5065541;28;20140;-66
2022/06/08 03:53:09;;;;;;;14.15;4.60;;;21.40;65.50;;;;;;5065429;28;20025;-66
2022/06/08 03:55:35;;;;;;;16.15;4.78;;;21.40;65.40;;;;;;5050247;28;20591;-67
2022/06/08 03:58:01;;;;;;;13.07;4.38;;;21.40;65.50;;;;;;5066269;28;20082;-67
2022/06/08 04:00:27;;;;;;;13.05;4.38;;;21.40;66.60;;;;;;5065807;28;20024;-66
2022/06/08 04:02:53;;;;;;;12.45;4.30;;;21.40;65.50;;;;;;5069490;28;20029;-67
2022/06/08 04:05:19;;;;;;;14.70;4.82;;;21.40;65.50;;;;;;5064713;28;20098;-67
2022/06/08 04:07:44;;;;;;;11.25;4.00;;;21.40;65.60;;;;;;5067439;28;21873;-67
2022/06/08 04:10:10;;;;;;;14.23;4.57;;;21.40;65.60;;;;;;5064293;28;20447;-67
2022/06/08 04:12:37;;;;;;;11.57;4.15;;;21.40;65.60;;;;;;5066321;28;20039;-67
2022/06/08 04:15:03;;;;;;;12.60;4.70;;;21.40;65.70;;;;;;5068916;28;20028;-67
2022/06/08 04:17:29;;;;;;;12.05;4.55;;;21.40;65.70;;;;;;5066180;28;20032;-67
2022/06/08 04:19:55;;;;;;;12.27;4.35;;;21.40;65.70;;;;;;5064320;28;20031;-66
2022/06/08 04:22:21;;;;;;;16.30;4.47;;;21.40;65.70;;;;;;5069773;28;20082;-67
2022/06/08 04:24:47;;;;;;;12.25;4.20;;;21.40;65.70;;;;;;5065950;28;20035;-69
2022/06/08 04:27:12;;;;;;;12.05;4.20;;;21.40;65.70;;;;;;5065630;28;20029;-67
2022/06/08 04:29:38;;;;;;;14.35;4.68;;;21.40;65.70;;;;;;5068348;28;20020;-67
2022/06/08 04:32:09;;;;;;;13.25;4.80;;;21.40;65.70;;;;;;5065296;28;20078;-67
2022/06/08 04:34:36;;;;;;;9.00;3.72;;;21.30;65.90;;;;;;5068018;28;20111;-67
2022/06/08 04:37:03;;;;;;;12.60;3.90;;;21.40;65.80;;;;;;5065936;28;20032;-67
2022/06/08 04:39:29;;;;;;;13.35;4.20;;;21.40;65.80;;;;;;5065410;28;20112;-68
2022/06/08 04:41:55;;;;;;;12.07;4.43;;;21.30;65.70;;;;;;5072863;28;20662;-67
2022/06/08 04:44:21;;;;;;;12.25;4.40;;;21.30;65.70;;;;;;5069571;28;20027;-67
2022/06/08 04:46:46;;;;;;;11.00;4.07;;;21.30;65.70;;;;;;5065267;28;20033;-67
2022/06/08 04:49:12;;;;;;;11.55;4.00;;;21.30;65.80;;;;;;5068665;28;20584;-66
2022/06/08 04:51:37;;;;;;;12.77;4.40;;;21.30;65.70;;;;;;5061342;28;20112;-67
2022/06/08 04:54:03;;;;;;;11.15;3.85;;;21.30;65.70;;;;;;5061783;28;20091;-67
2022/06/08 04:56:29;;;;;;;13.82;4.38;;;21.30;65.70;;;;;;5064488;28;20773;-66
2022/06/08 04:58:55;;;;;;;12.73;4.05;;;21.30;65.70;;;;;;5064696;28;20043;-67
2022/06/08 05:01:22;;;;;;;13.60;4.32;;;21.30;66.10;;;;;;5066486;28;20037;-66
2022/06/08 05:03:47;;;;;;;12.50;4.13;;;21.30;66.10;;;;;;5067607;28;20033;-66
2022/06/08 05:06:13;;;;;;;15.15;4.30;;;21.30;66.10;;;;;;5060767;28;20036;-67
2022/06/08 05:08:40;;;;;;;14.15;4.00;;;21.30;66.10;;;;;;5065386;28;20035;-66
2022/06/08 05:11:06;;;;;;;10.70;3.67;;;21.30;66.10;;;;;;5061630;28;20078;-67
2022/06/08 05:13:32;;;;;;;11.07;3.80;;;21.30;66.10;;;;;;5067340;28;20033;-66
2022/06/08 05:15:58;;;;;;;16.88;4.88;;;21.30;66.00;;;;;;5064942;28;20135;-66
2022/06/08 05:18:26;;;;;;;12.65;4.22;;;21.30;66.70;;;;;;5068226;28;20029;-66
2022/06/08 05:20:53;;;;;;;15.52;4.80;;;21.40;66.40;;;;;;5068056;28;20036;-66
2022/06/08 05:23:22;;;;;;;13.85;4.18;;;21.40;67.60;;;;;;5060937;28;20127;-66
2022/06/08 05:25:48;;;;;;;17.23;4.95;;;21.40;67.00;;;;;;5061323;28;20440;-66
2022/06/08 05:28:14;;;;;;;14.68;4.57;;;21.40;67.60;;;;;;5065393;28;20024;-67
2022/06/08 05:30:40;;;;;;;13.55;4.18;;;21.40;67.80;;;;;;5067650;28;20520;-67
2022/06/08 05:33:06;;;;;;;17.08;4.70;;;21.40;68.00;;;;;;5068756;28;20073;-67
2022/06/08 05:35:31;;;;;;;14.63;3.97;;;21.40;68.10;;;;;;5067143;28;20048;-65
2022/06/08 05:37:57;;;;;;;15.05;4.90;;;21.40;68.10;;;;;;5061946;28;20546;-65
2022/06/08 05:40:23;;;;;;;26.48;4.72;;;21.40;68.20;;;;;;5080134;28;20150;-66
2022/06/08 05:42:49;;;;;;;12.82;3.90;;;21.40;67.90;;;;;;5063808;28;20032;-67
2022/06/08 05:45:24;;;;;;;14.98;4.30;;;21.40;67.60;;;;;;5064436;28;20027;-66
2022/06/08 05:47:50;;;;;;;13.10;4.45;;;21.40;67.70;;;;;;5065568;28;20024;-66
2022/06/08 05:50:16;;;;;;;18.45;4.70;;;21.40;67.70;;;;;;5063050;28;20052;-66
2022/06/08 05:52:42;;;;;;;13.65;4.10;;;21.40;67.90;;;;;;5065310;28;20017;-67
2022/06/08 05:55:09;;;;;;;13.60;4.55;;;21.40;67.70;;;;;;5065396;28;20086;-66
2022/06/08 05:57:36;;;;;;;13.68;4.28;;;21.40;67.80;;;;;;5064750;28;20572;-66
2022/06/08 06:00:03;;;;;;;13.25;3.95;;;21.40;67.40;;;;;;5062845;28;20025;-66
2022/06/08 06:02:29;;;;;;;13.35;4.10;;;21.40;67.50;;;;;;5081152;28;20105;-66
2022/06/08 06:04:55;;;;;;;14.57;4.22;;;21.40;67.30;;;;;;5063342;28;20607;-67
2022/06/08 06:07:20;;;;;;;15.75;4.25;;;21.40;67.40;;;;;;5066180;28;20027;-66
2022/06/08 06:09:46;;;;;;;13.27;4.18;;;21.40;67.50;;;;;;5065657;28;22759;-66
2022/06/08 06:12:12;;;;;;;12.35;4.13;;;21.40;67.00;;;;;;5064508;28;20129;-66
2022/06/08 06:14:37;;;;;;;11.88;4.00;;;21.40;67.30;;;;;;5062840;28;20081;-66
2022/06/08 06:17:03;;;;;;;14.82;4.35;;;21.40;67.30;;;;;;5064333;28;20637;-66
2022/06/08 06:19:29;;;;;;;13.98;4.00;;;21.40;67.40;;;;;;5065488;28;20688;-66
2022/06/08 06:21:55;;;;;;;12.45;4.18;;;21.30;67.10;;;;;;5061874;28;20488;-66
2022/06/08 06:24:20;;;;;;;11.77;4.00;;;21.30;67.30;;;;;;5065769;28;20416;-67
2022/06/08 06:26:46;;;;;;;13.90;4.10;;;21.30;67.20;;;;;;5063520;28;20116;-66
2022/06/08 06:29:12;;;;;;;13.10;4.30;;;21.30;67.20;;;;;;5062793;28;20032;-66
2022/06/08 06:31:41;;;;;;;13.02;3.95;;;21.40;67.10;;;;;;5065430;28;20159;-66
2022/06/08 06:34:09;;;;;;;13.52;4.10;;;21.30;67.10;;;;;;5064317;28;20029;-66
2022/06/08 06:36:34;;;;;;;12.70;4.20;;;21.30;67.00;;;;;;5064940;28;20033;-66
2022/06/08 06:39:00;;;;;;;13.77;4.25;;;21.30;66.90;;;;;;5062407;28;20081;-66
2022/06/08 06:41:27;;;;;;;14.38;3.95;;;21.40;66.90;;;;;;5062654;28;20044;-66
2022/06/08 06:43:53;;;;;;;12.85;4.40;;;21.40;66.70;;;;;;5062746;28;20112;-66
2022/06/08 06:46:18;;;;;;;11.52;4.25;;;21.40;66.70;;;;;;5063234;28;20111;-66
2022/06/08 06:48:44;;;;;;;11.25;3.90;;;21.40;66.70;;;;;;5063534;28;20044;-66
2022/06/08 06:51:10;;;;;;;12.57;3.70;;;21.40;66.80;;;;;;5063611;28;20033;-66
2022/06/08 06:53:35;;;;;;;12.25;3.80;;;21.40;66.60;;;;;;5064103;28;20537;-66
2022/06/08 06:56:01;;;;;;;11.63;3.80;;;21.40;66.70;;;;;;5063006;28;20464;-66
2022/06/08 06:58:27;;;;;;;12.80;4.40;;;21.40;66.60;;;;;;5065417;28;20094;-65
2022/06/08 07:00:53;;;;;;;10.02;3.50;;;21.40;66.40;;;;;;5064363;28;20032;-66
2022/06/08 07:03:19;;;;;;;9.88;3.38;;;21.40;66.70;;;;;;5062297;28;20039;-66
2022/06/08 07:05:44;;;;;;;13.23;4.10;;;21.40;66.40;;;;;;5062259;28;20020;-66
2022/06/08 07:08:10;;;;;;;14.82;3.90;;;21.40;66.30;;;;;;5064049;28;20272;-66
2022/06/08 07:10:39;;;;;;;10.05;3.45;;;21.40;66.60;;;;;;5064035;28;20036;-66
2022/06/08 07:13:04;;;;;;;14.15;3.90;;;21.40;66.50;;;;;;5061709;28;20031;-66
2022/06/08 07:15:30;;;;;;;12.40;3.88;;;21.40;66.60;;;;;;5064157;28;20021;-66
2022/06/08 07:17:56;;;;;;;11.02;3.75;;;21.40;66.70;;;;;;5063088;28;20032;-66
2022/06/08 07:20:22;;;;;;;10.05;3.72;;;21.40;66.70;;;;;;5063223;28;20074;-66
2022/06/08 07:22:49;;;;;;;12.55;3.85;;;21.40;66.80;;;;;;5063407;28;20715;-66
2022/06/08 07:25:15;;;;;;;11.05;3.40;;;21.30;66.60;;;;;;5063103;28;20063;-66
2022/06/08 07:27:41;;;;;;;10.45;3.67;;;21.40;66.60;;;;;;5060525;28;20060;-66
2022/06/08 07:30:07;;;;;;;11.70;3.70;;;21.40;66.60;;;;;;5062927;28;20028;-66
2022/06/08 07:32:33;;;;;;;12.00;3.83;;;21.40;66.80;;;;;;5061838;28;20033;-66
2022/06/08 07:34:59;;;;;;;10.48;3.63;;;21.40;66.50;;;;;;5063824;28;20110;-66
2022/06/08 07:37:26;;;;;;;11.40;3.60;;;21.40;66.40;;;;;;5064286;28;20501;-66
2022/06/08 07:39:52;;;;;;;13.32;3.38;;;21.40;66.50;;;;;;5064921;28;20409;-66
2022/06/08 07:42:17;;;;;;;13.45;3.90;;;21.40;66.70;;;;;;5063101;28;20561;-66
2022/06/08 07:44:44;;;;;;;10.13;3.78;;;21.40;66.50;;;;;;5061045;28;20016;-66
2022/06/08 07:47:09;;;;;;;11.43;3.85;;;21.40;67.30;;;;;;5062877;28;20024;-66
2022/06/08 07:49:39;;;;;;;10.90;3.47;;;21.40;66.30;;;;;;5065163;28;20124;-66
2022/06/08 07:52:16;;;;;;;10.32;3.33;;;21.40;66.40;;;;;;5062044;28;20385;-66
2022/06/08 07:54:42;;;;;;;10.32;3.33;;;21.40;66.40;;;;;;5060366;28;20039;-66
2022/06/08 07:57:11;;;;;;;9.38;3.20;;;21.40;66.40;;;;;;5063225;28;20033;-65
2022/06/08 07:59:37;;;;;;;12.70;3.58;;;21.40;66.30;;;;;;5062166;28;20024;-66
2022/06/08 08:02:04;;;;;;;9.48;3.17;;;21.40;66.40;;;;;;5063385;28;20033;-66
2022/06/08 08:04:29;;;;;;;8.90;3.25;;;21.40;66.40;;;;;;5066475;28;20020;-66
2022/06/08 08:06:55;;;;;;;10.48;3.50;;;21.40;66.40;;;;;;5061068;28;20035;-67
2022/06/08 08:09:22;;;;;;;9.13;2.83;;;21.40;66.50;;;;;;5061221;28;20420;-66
2022/06/08 08:11:51;;;;;;;10.10;3.25;;;21.40;66.40;;;;;;5060587;28;20032;-65
2022/06/08 08:14:18;;;;;;;10.65;3.47;;;21.50;66.40;;;;;;5060805;28;20397;-66
2022/06/08 08:16:44;;;;;;;13.70;3.53;;;21.50;65.90;;;;;;5062178;28;20032;-66
2022/06/08 08:19:11;;;;;;;9.05;3.50;;;21.50;66.20;;;;;;5062005;28;20043;-65
2022/06/08 08:21:37;;;;;;;9.40;2.85;;;21.50;66.20;;;;;;5061394;28;20077;-66
2022/06/08 08:24:04;;;;;;;10.27;3.33;;;21.50;66.10;;;;;;5063589;28;20528;-66
2022/06/08 08:26:31;;;;;;;9.80;3.25;;;21.50;66.20;;;;;;5068348;28;20721;-65
2022/06/08 08:28:57;;;;;;;13.20;3.60;;;21.50;66.20;;;;;;5066629;28;20089;-66
2022/06/08 08:31:23;;;;;;;10.13;3.30;;;21.50;66.20;;;;;;5066709;28;20471;-66
2022/06/08 08:33:49;;;;;;;10.82;3.63;;;21.50;66.20;;;;;;5065044;28;20036;-66
2022/06/08 08:36:14;;;;;;;9.07;3.10;;;21.50;66.20;;;;;;5065330;28;20067;-66
2022/06/08 08:38:40;;;;;;;12.27;3.67;;;21.50;65.80;;;;;;5064725;28;20535;-66
2022/06/08 08:42:20;;;;;;;9.93;3.40;;;21.50;66.10;;;;;;5065994;28;20016;-66
2022/06/08 08:43:51;;;;;;;10.70;3.42;;;21.50;66.10;;;;;;5065710;28;20111;-65
2022/06/08 08:46:22;;;;;;;10.40;3.45;;;21.50;66.10;;;;;;5065707;28;20716;-66
2022/06/08 08:48:54;;;;;;;9.77;2.92;;;21.50;66.00;;;;;;5066020;28;20583;-66
2022/06/08 08:51:27;;;;;;;11.07;3.33;;;21.50;66.10;;;;;;5066432;28;20042;-66
2022/06/08 08:54:00;;;;;;;13.63;3.28;;;21.50;66.00;;;;;;5065553;28;20021;-65
2022/06/08 08:56:29;;;;;;;10.68;3.22;;;21.60;66.00;;;;;;5066568;28;20610;-66
2022/06/08 08:58:55;;;;;;;9.55;3.17;;;21.60;66.00;;;;;;5065801;28;20084;-66
2022/06/08 09:01:34;;;;;;;8.80;3.15;;;21.60;66.00;;;;;;5065417;28;20058;-66
2022/06/08 09:04:25;;;;;;;9.77;2.90;;;21.50;66.10;;;;;;5051218;28;20020;-66
2022/06/08 09:06:50;;;;;;;8.10;3.03;;;21.50;66.10;;;;;;5064417;28;20025;-66
2022/06/08 09:09:21;;;;;;;9.80;2.95;;;21.60;66.00;;;;;;5049551;28;20040;-66
2022/06/08 09:11:47;;;;;;;10.00;3.10;;;21.60;65.90;;;;;;5064561;28;20036;-65
2022/06/08 09:14:23;;;;;;;11.13;3.55;;;21.60;65.90;;;;;;5066050;28;20444;-66
2022/06/08 09:17:11;;;;;;;9.13;2.95;;;21.60;65.80;;;;;;5064736;28;20037;-66
2022/06/08 09:19:43;;;;;;;9.25;3.00;;;21.70;65.90;;;;;;5083322;28;20075;-66
2022/06/08 09:22:08;;;;;;;10.13;3.05;;;21.60;66.10;;;;;;5064775;28;20024;-66
2022/06/08 09:24:49;;;;;;;10.73;3.08;;;21.60;67.10;;;;;;5064648;28;20404;-66
2022/06/08 09:27:33;;;;;;;9.80;3.35;;;21.60;66.00;;;;;;5065508;28;20024;-66
2022/06/08 09:30:08;;;;;;;11.50;3.23;;;21.70;65.90;;;;;;5064497;28;20040;-66
2022/06/08 09:32:34;;;;;;;8.68;2.80;;;21.70;65.90;;;;;;5064672;28;20025;-66
2022/06/08 09:35:21;;;;;;;8.45;3.13;;;21.70;65.90;;;;;;5063651;28;20032;-66
2022/06/08 09:37:47;;;;;;;10.27;2.92;;;21.70;65.80;;;;;;5064164;28;20484;-66
2022/06/08 09:40:36;;;;;;;9.98;3.10;;;21.70;65.80;;;;;;5066950;28;20443;-66
2022/06/08 09:43:03;;;;;;;9.75;3.30;;;21.70;65.80;;;;;;5064526;28;20044;-66
2022/06/08 09:45:37;;;;;;;7.53;2.65;;;21.80;65.60;;;;;;5066457;28;20017;-66
2022/06/08 09:51:29;;;;;;;8.75;3.20;;;21.70;65.80;;;;;;5060892;28;20109;-65
2022/06/08 09:54:41;;;;;;;10.15;3.30;;;21.80;65.60;;;;;;5062934;28;20028;-66
2022/06/08 09:57:24;;;;;;;9.98;2.83;;;21.80;65.60;;;;;;5059556;28;20094;-66
2022/06/08 09:59:55;;;;;;;10.65;3.05;;;21.80;65.60;;;;;;5061572;28;20020;-66
2022/06/08 10:02:34;;;;;;;9.98;3.22;;;21.80;65.40;;;;;;5063695;28;20045;-66
2022/06/08 10:05:22;;;;;;;10.38;3.05;;;21.90;65.10;;;;;;5064425;28;20041;-66
2022/06/08 10:07:54;;;;;;;10.68;3.15;;;21.90;65.50;;;;;;5066715;28;20032;-65
2022/06/08 10:10:25;;;;;;;11.65;3.10;;;21.90;65.50;;;;;;5064528;28;20509;-66
2022/06/08 10:12:57;;;;;;;6.72;2.40;;;21.90;65.50;;;;;;5064119;28;20115;-66
2022/06/08 10:15:25;;;;;;;9.18;2.78;;;21.90;65.00;;;;;;5059344;28;20029;-66
2022/06/08 10:18:13;;;;;;;9.48;3.20;;;22.00;65.40;;;;;;5064859;28;20101;-65
2022/06/08 10:20:59;;;;;;;10.32;3.00;;;21.90;65.50;;;;;;5062665;28;20032;-66
2022/06/08 10:23:44;;;;;;;8.73;3.10;;;21.90;65.50;;;;;;5062102;28;20543;-66
2022/06/08 10:26:21;;;;;;;10.45;3.17;;;21.90;65.30;;;;;;5065029;28;20114;-66
2022/06/08 10:28:53;;;;;;;10.00;2.88;;;22.00;65.40;;;;;;5066110;28;20103;-66
2022/06/08 10:31:21;;;;;;;7.43;2.70;;;22.00;65.30;;;;;;5063446;28;20022;-66
2022/06/08 10:33:55;;;;;;;9.77;2.90;;;22.00;65.40;;;;;;5065740;28;20055;-66
2022/06/08 10:36:21;;;;;;;7.85;2.60;;;22.00;65.30;;;;;;5063375;28;20493;-66
2022/06/08 10:38:47;;;;;;;9.60;2.58;;;22.00;65.30;;;;;;5064771;28;20051;-66
2022/06/08 10:44:03;;;;;;;10.48;3.17;;;22.00;65.20;;;;;;5063849;28;20035;-66
2022/06/08 10:46:45;;;;;;;7.68;2.67;;;22.10;65.20;;;;;;5062548;28;20013;-66
2022/06/08 10:49:40;;;;;;;9.35;2.95;;;22.10;65.00;;;;;;5062042;28;20066;-65
2022/06/08 10:52:23;;;;;;;7.03;2.42;;;22.10;65.20;;;;;;5064863;28;20082;-66
2022/06/08 10:54:55;;;;;;;8.57;2.80;;;22.10;65.10;;;;;;5064770;28;20599;-66
2022/06/08 10:57:41;;;;;;;10.73;3.08;;;22.10;65.00;;;;;;5063729;28;20044;-66
2022/06/08 11:00:19;;;;;;;9.60;2.58;;;22.10;65.00;;;;;;5061344;28;20119;-66
2022/06/08 11:02:48;;;;;;;9.32;2.97;;;22.10;65.10;;;;;;5059113;28;20044;-66
2022/06/08 11:05:36;;;;;;;8.20;2.60;;;22.10;65.00;;;;;;5064737;28;20032;-66
2022/06/08 11:08:02;;;;;;;9.65;2.83;;;22.10;65.10;;;;;;5064699;28;20029;-66
2022/06/08 11:10:50;;;;;;;8.02;2.50;;;22.10;65.00;;;;;;5065130;28;20024;-65
2022/06/08 11:13:22;;;;;;;8.55;2.80;;;22.20;65.20;;;;;;5061026;28;20067;-66
2022/06/08 11:15:52;;;;;;;8.77;2.75;;;22.20;65.10;;;;;;5062645;28;20031;-65
2022/06/08 11:18:41;;;;;;;9.40;2.58;;;22.20;65.20;;;;;;5063963;28;20179;-66
2022/06/08 11:21:13;;;;;;;7.82;2.35;;;22.20;65.00;;;;;;5063102;28;20044;-66
2022/06/08 11:23:52;;;;;;;9.25;2.83;;;22.20;65.00;;;;;;5056690;28;20028;-66
2022/06/08 11:26:23;;;;;;;8.07;2.33;;;22.20;65.20;;;;;;5061783;28;20477;-66
2022/06/08 11:28:52;;;;;;;8.32;2.60;;;22.20;65.00;;;;;;5062267;28;20123;-66
2022/06/08 11:31:30;;;;;;;9.52;2.70;;;22.20;65.00;;;;;;5063486;28;20032;-66
2022/06/08 11:33:58;;;;;;;7.38;2.67;;;22.20;65.10;;;;;;5062999;28;20035;-66
2022/06/08 11:36:36;;;;;;;7.35;2.63;;;22.30;65.10;;;;;;5063499;28;20033;-66
2022/06/08 11:39:26;;;;;;;9.40;2.67;;;22.30;65.00;;;;;;5064055;28;20401;-66
2022/06/08 11:42:00;;;;;;;8.60;2.63;;;22.30;64.70;;;;;;5064193;28;20025;-66
2022/06/08 11:44:31;;;;;;;7.88;2.40;;;22.30;64.80;;;;;;5058533;28;20063;-66
2022/06/08 11:47:14;;;;;;;9.18;2.97;;;22.30;64.70;;;;;;5079832;28;20052;-66
2022/06/08 11:49:46;;;;;;;7.90;2.78;;;22.30;64.70;;;;;;5077065;28;20088;-66
2022/06/08 11:52:29;;;;;;;8.50;2.70;;;22.30;64.80;;;;;;5064308;28;20028;-66
2022/06/08 11:55:15;;;;;;;9.40;2.85;;;22.30;64.70;;;;;;5061658;28;20028;-66
2022/06/08 11:57:51;;;;;;;9.05;2.53;;;22.40;64.70;;;;;;5060224;28;20044;-66
2022/06/08 12:00:39;;;;;;;7.82;2.55;;;22.40;64.70;;;;;;5066853;28;20524;-66
2022/06/08 12:03:17;;;;;;;8.27;2.00;;;22.40;64.80;;;;;;5046845;28;20039;-66
2022/06/08 12:05:47;;;;;;;8.93;2.55;;;22.40;64.70;;;;;;5045169;28;20041;-66
2022/06/08 12:08:18;;;;;;;7.45;2.28;;;22.40;64.90;;;;;;5046137;28;20033;-66
2022/06/08 12:10:43;;;;;;;11.75;3.13;;;22.40;64.60;;;;;;5042840;28;20041;-66
2022/06/08 12:13:21;;;;;;;7.75;2.40;;;22.40;64.60;;;;;;5044461;28;20397;-66
2022/06/08 12:16:01;;;;;;;10.45;2.65;;;22.50;64.40;;;;;;5025924;28;20609;-65
2022/06/08 12:18:28;;;;;;;8.93;2.95;;;22.50;64.40;;;;;;5046365;28;20053;-66
2022/06/08 12:21:18;;;;;;;8.43;2.55;;;22.50;64.40;;;;;;5045973;28;20068;-66
2022/06/08 12:23:55;;;;;;;6.85;2.42;;;22.60;64.50;;;;;;5044679;28;20033;-66
2022/06/08 12:26:22;;;;;;;8.93;2.55;;;22.60;64.30;;;;;;5046296;28;20056;-66
2022/06/08 12:29:04;;;;;;;7.78;2.30;;;22.60;64.20;;;;;;5046010;28;20040;-66
2022/06/08 12:31:33;;;;;;;6.97;2.28;;;22.60;64.20;;;;;;5045723;28;20111;-66
2022/06/08 12:34:44;;;;;;;9.00;2.55;;;22.60;64.40;;;;;;5023302;28;20040;-70
2022/06/08 12:37:44;;;;;;;8.90;2.50;;;22.60;64.70;;;;;;4967607;28;20066;-65
2022/06/08 12:40:15;;;;;;;6.88;2.17;;;22.60;64.10;;;;;;4929706;29;20047;-64
2022/06/08 12:42:48;;;;;;;8.38;2.38;;;22.70;64.20;;;;;;4915231;29;20044;-66
2022/06/08 12:45:30;;;;;;;9.05;2.90;;;22.70;64.10;;;;;;4916516;29;20067;-65
2022/06/08 12:47:56;;;;;;;10.70;2.70;;;22.80;64.00;;;;;;4917860;29;20555;-66
2022/06/08 12:50:24;;;;;;;8.80;2.72;;;22.80;64.10;;;;;;4917824;29;20044;-66
2022/06/08 12:52:50;;;;;;;9.57;2.78;;;22.80;63.80;;;;;;4917509;29;20032;-66
2022/06/08 12:55:21;;;;;;;12.50;2.97;;;22.80;63.70;;;;;;4904222;29;20114;-66
2022/06/08 12:57:47;;;;;;;9.88;2.38;;;22.90;63.80;;;;;;4917600;29;20040;-66
2022/06/08 13:00:24;;;;;;;12.52;2.58;;;22.90;63.70;;;;;;4913281;29;20040;-67
2022/06/08 13:02:50;;;;;;;13.00;2.95;;;22.90;63.60;;;;;;4913724;29;20067;-65
2022/06/08 13:05:26;;;;;;;10.23;2.58;;;22.90;63.60;;;;;;4914207;29;20107;-65
2022/06/08 13:07:54;;;;;;;11.05;2.50;;;23.00;63.50;;;;;;4917603;29;20097;-65
2022/06/08 13:10:21;;;;;;;11.10;2.80;;;23.00;63.50;;;;;;4919785;29;20127;-66